Time;durP1;ratioP1;P1;durP2;ratioP2;P2;SDS_P1;SDS_P2;PMS_P1;PMS_P2;Temp;Humidity;BMP_temperature;BMP_pressure;BME280_temperature;BME280_humidity;BME280_pressure;Samples;Min_cycle;Max_cycle;Signal;HPM_P1;HPM_P2
2023/02/01 00:05:01;;;;;;;18.83;2.70;;;;;;;2.87;75.52;100548.50;10493366;28;20048;-77
2023/02/01 00:10:07;;;;;;;23.15;3.47;;;;;;;2.70;75.84;100536.88;10496853;28;20070;-78
2023/02/01 00:15:10;;;;;;;23.92;3.50;;;;;;;3.16;74.49;100548.00;10488406;28;20039;-78
2023/02/01 00:20:13;;;;;;;23.20;4.28;;;;;;;3.28;73.84;100544.75;10478712;28;20554;-77
2023/02/01 00:25:17;;;;;;;19.35;3.72;;;;;;;3.42;73.24;100549.38;10470816;28;20037;-78
2023/02/01 00:30:20;;;;;;;21.67;3.05;;;;;;;2.91;74.87;100563.34;10464393;28;20091;-78
2023/02/01 00:35:23;;;;;;;11.30;1.95;;;;;;;3.12;73.78;100551.72;10476376;28;20087;-78
2023/02/01 00:40:28;;;;;;;12.15;2.78;;;;;;;3.02;74.31;100548.66;10482366;28;20080;-77
2023/02/01 00:45:31;;;;;;;8.00;2.85;;;;;;;3.09;73.85;100540.38;10476315;28;20040;-77
2023/02/01 00:50:33;;;;;;;15.25;3.60;;;;;;;3.31;73.36;100532.25;10471257;28;20109;-78
2023/02/01 00:55:38;;;;;;;25.60;3.33;;;;;;;3.12;73.67;100533.13;10479485;28;20073;-77
2023/02/01 01:00:41;;;;;;;26.42;3.03;;;;;;;3.13;73.28;100534.03;10474153;28;20049;-77
2023/02/01 01:05:44;;;;;;;22.83;3.83;;;;;;;3.05;73.69;100529.94;10463424;28;20490;-78
2023/02/01 01:10:49;;;;;;;19.55;3.72;;;;;;;3.22;73.56;100523.81;10467684;28;20059;-77
2023/02/01 01:15:52;;;;;;;11.38;2.17;;;;;;;3.12;73.15;100534.94;10477272;28;20044;-78
2023/02/01 01:20:54;;;;;;;20.80;3.58;;;;;;;2.98;73.87;100524.97;10487528;28;20040;-77
2023/02/01 01:25:59;;;;;;;11.95;2.13;;;;;;;2.76;74.25;100527.78;10478451;28;20047;-78
2023/02/01 01:31:02;;;;;;;11.93;1.80;;;;;;;2.89;74.15;100509.50;10465016;28;20090;-78
2023/02/01 01:36:06;;;;;;;14.75;3.03;;;;;;;3.13;74.01;100516.28;10480466;28;20037;-78
2023/02/01 01:41:14;;;;;;;21.90;2.90;;;;;;;2.83;75.34;100502.69;10483943;28;20060;-78
2023/02/01 01:46:19;;;;;;;26.42;3.75;;;;;;;3.00;75.05;100533.72;10494540;28;20175;-76
2023/02/01 01:51:25;;;;;;;16.83;3.00;;;;;;;2.72;76.09;100512.94;10502700;28;20095;-78
2023/02/01 01:56:32;;;;;;;21.15;3.78;;;;;;;2.87;75.75;100496.28;10471887;28;20040;-77
2023/02/01 02:01:36;;;;;;;7.85;1.95;;;;;;;2.75;76.81;100507.50;10473201;28;20420;-77
2023/02/01 02:06:47;;;;;;;17.23;2.95;;;;;;;2.79;76.45;100488.69;10457260;28;20435;-77
2023/02/01 02:11:52;;;;;;;12.02;1.88;;;;;;;2.91;75.82;100478.41;10462591;28;20044;-78
2023/02/01 02:17:16;;;;;;;13.57;3.10;;;;;;;2.87;76.40;100476.84;10474703;28;20077;-77
2023/02/01 02:22:56;;;;;;;26.65;3.75;;;;;;;2.91;76.38;100471.34;10457299;28;20503;-78
2023/02/01 02:28:12;;;;;;;13.15;2.58;;;;;;;2.64;77.48;100470.84;10483122;28;20063;-77
2023/02/01 02:33:42;;;;;;;25.05;3.92;;;;;;;3.21;76.05;100444.22;10493309;28;20116;-78
2023/02/01 02:38:51;;;;;;;12.18;2.85;;;;;;;2.87;76.76;100445.03;10464024;28;20041;-77
2023/02/01 02:49:26;;;;;;;14.38;4.05;;;;;;;3.44;74.72;100414.72;10477592;28;20178;-77
2023/02/01 02:54:46;;;;;;;18.92;4.80;;;;;;;3.19;75.38;100416.91;10490478;28;20119;-76
2023/02/01 03:05:15;;;;;;;21.35;3.97;;;;;;;3.47;73.70;100406.59;10507335;28;20048;-77
2023/02/01 03:10:25;;;;;;;13.95;3.15;;;;;;;3.18;74.21;100404.56;10501674;28;20048;-78
2023/02/01 03:15:36;;;;;;;19.45;4.22;;;;;;;3.41;73.47;100406.91;10480521;28;20515;-77
2023/02/01 03:20:44;;;;;;;12.82;2.97;;;;;;;3.43;72.75;100407.72;10463442;28;20071;-77
2023/02/01 03:25:49;;;;;;;24.40;3.50;;;;;;;3.35;73.55;100393.13;10477111;28;20052;-77
2023/02/01 03:30:52;;;;;;;15.15;3.00;;;;;;;3.52;73.17;100390.44;10484453;28;20044;-77
2023/02/01 03:36:06;;;;;;;17.30;2.58;;;;;;;3.37;73.09;100375.28;10482664;28;20457;-78
2023/02/01 03:41:15;;;;;;;19.63;3.78;;;;;;;3.52;72.29;100360.38;10462947;28;20045;-77
2023/02/01 03:46:23;;;;;;;25.45;4.28;;;;;;;3.44;72.79;100343.03;10479093;28;20382;-78
2023/02/01 03:51:30;;;;;;;16.73;3.25;;;;;;;3.52;72.10;100358.56;10499985;28;20102;-76
2023/02/01 03:56:37;;;;;;;27.30;4.22;;;;;;;3.64;72.44;100351.75;10462039;28;20106;-77
2023/02/01 04:01:40;;;;;;;7.03;2.00;;;;;;;3.49;71.17;100356.06;10473824;28;20407;-76
2023/02/01 04:06:45;;;;;;;15.25;2.83;;;;;;;3.57;71.21;100345.06;10488477;28;20082;-78
2023/02/01 04:11:48;;;;;;;20.60;3.13;;;;;;;3.54;71.81;100348.72;10500643;28;20045;-78
2023/02/01 04:16:50;;;;;;;18.25;3.58;;;;;;;3.73;71.85;100333.53;10499413;28;20069;-78
2023/02/01 04:21:55;;;;;;;19.40;3.35;;;;;;;3.36;72.90;100313.34;10464392;28;20496;-78
2023/02/01 04:26:58;;;;;;;11.60;3.00;;;;;;;3.06;73.87;100326.41;10473637;28;20055;-78
2023/02/01 04:32:00;;;;;;;17.90;2.60;;;;;;;3.32;74.32;100325.09;10468075;28;20454;-78
2023/02/01 04:37:05;;;;;;;20.90;4.03;;;;;;;3.25;75.50;100321.03;10486493;28;20385;-78
2023/02/01 04:42:08;;;;;;;24.63;3.65;;;;;;;3.02;76.96;100320.41;10493766;28;20056;-78
2023/02/01 04:47:11;;;;;;;10.13;2.00;;;;;;;3.08;78.57;100329.84;10488591;28;20068;-77
2023/02/01 04:52:15;;;;;;;20.73;3.20;;;;;;;2.86;78.64;100306.19;10497098;28;20037;-78
2023/02/01 04:57:18;;;;;;;14.85;3.10;;;;;;;2.78;80.59;100311.88;10483222;28;20649;-78
2023/02/01 05:02:21;;;;;;;15.23;4.45;;;;;;;2.26;84.34;100297.63;10489940;28;20052;-77
2023/02/01 05:07:25;;;;;;;19.83;3.45;;;;;;;2.24;87.01;100294.19;10479170;28;20060;-78
2023/02/01 05:17:48;;;;;;;21.08;4.28;;;;;;;2.42;87.07;100282.69;10536581;28;20045;-77
2023/02/01 05:22:52;;;;;;;17.83;3.13;;;;;;;2.72;85.61;100290.13;10521543;28;20121;-77
2023/02/01 05:27:55;;;;;;;20.63;3.55;;;;;;;2.73;86.41;100278.56;10505912;28;20053;-78
2023/02/01 05:32:58;;;;;;;19.85;4.05;;;;;;;2.17;88.97;100301.59;10509417;28;20029;-77
2023/02/01 05:38:02;;;;;;;18.48;3.97;;;;;;;2.60;87.97;100287.13;10515139;28;20049;-77
2023/02/01 05:43:05;;;;;;;24.70;4.90;;;;;;;2.33;88.97;100253.97;10533240;28;20052;-77
2023/02/01 05:48:08;;;;;;;14.57;3.85;;;;;;;2.35;88.27;100249.47;10524209;28;20036;-77
2023/02/01 05:53:12;;;;;;;22.60;3.45;;;;;;;2.58;89.10;100272.25;10527142;28;20028;-77
2023/02/01 05:58:15;;;;;;;14.85;2.28;;;;;;;2.29;87.92;100278.94;10545209;28;20028;-77
2023/02/01 06:03:18;;;;;;;25.25;4.43;;;;;;;2.66;85.56;100237.34;10533301;28;20025;-76
2023/02/01 06:08:24;;;;;;;26.05;4.10;;;;;;;2.77;85.03;100254.47;10504871;28;20052;-78
2023/02/01 06:13:26;;;;;;;16.08;3.60;;;;;;;2.90;84.28;100261.78;10508776;28;20080;-78
2023/02/01 06:18:30;;;;;;;21.30;3.95;;;;;;;2.75;85.04;100251.03;10543375;28;20037;-77
2023/02/01 06:23:34;;;;;;;21.48;4.60;;;;;;;2.91;84.19;100259.06;10503841;28;20052;-77
2023/02/01 06:28:38;;;;;;;18.48;4.03;;;;;;;2.64;85.29;100256.00;10514321;28;20036;-77
2023/02/01 06:33:41;;;;;;;23.08;4.22;;;;;;;2.45;85.39;100256.03;10513730;28;20053;-77
2023/02/01 06:38:45;;;;;;;22.55;3.58;;;;;;;2.98;84.63;100270.22;10504317;28;20048;-77
2023/02/01 06:43:48;;;;;;;17.58;3.67;;;;;;;2.56;84.95;100269.66;10514792;28;20078;-77
2023/02/01 06:48:51;;;;;;;17.38;4.90;;;;;;;2.77;84.42;100282.75;10527179;28;20044;-77
2023/02/01 06:53:55;;;;;;;18.08;4.13;;;;;;;2.68;84.60;100292.03;10536474;28;20048;-77
2023/02/01 06:58:58;;;;;;;17.10;4.07;;;;;;;2.92;82.69;100303.22;10519030;28;20048;-77
2023/02/01 07:04:01;;;;;;;24.85;3.55;;;;;;;3.00;81.81;100285.13;10536246;28;20036;-77
2023/02/01 07:09:05;;;;;;;14.45;3.28;;;;;;;3.42;80.55;100282.97;10524473;28;20088;-77
2023/02/01 07:14:08;;;;;;;25.70;3.90;;;;;;;3.21;80.39;100300.88;10505299;28;20097;-77
2023/02/01 07:19:11;;;;;;;22.48;3.63;;;;;;;3.37;79.67;100293.81;10505460;28;20033;-76
2023/02/01 07:24:15;;;;;;;23.23;3.50;;;;;;;3.43;79.45;100320.06;10514450;28;20035;-76
2023/02/01 07:29:18;;;;;;;17.05;2.97;;;;;;;3.33;79.58;100310.00;10496885;28;20041;-78
2023/02/01 07:34:21;;;;;;;15.75;3.22;;;;;;;3.21;80.03;100314.13;10485614;28;20044;-78
2023/02/01 07:39:27;;;;;;;19.92;3.75;;;;;;;3.42;78.13;100334.28;10468525;28;20052;-78
2023/02/01 07:44:30;;;;;;;23.75;4.13;;;;;;;3.19;79.27;100331.97;10482006;28;20044;-78
2023/02/01 07:49:33;;;;;;;17.58;2.50;;;;;;;3.72;77.10;100357.50;10487520;28;20577;-77
2023/02/01 08:01:27;;;;;;;10.98;2.30;;;;;;;3.59;76.62;100346.66;10467666;28;20034;-77
2023/02/01 08:06:33;;;;;;;22.00;3.70;;;;;;;4.02;75.46;100336.41;10476366;28;20462;-78
2023/02/01 08:11:37;;;;;;;11.70;3.30;;;;;;;3.63;76.69;100339.41;10465214;28;20040;-77
2023/02/01 08:16:41;;;;;;;13.35;3.30;;;;;;;3.55;76.60;100355.75;10469258;28;20562;-78
2023/02/01 08:21:44;;;;;;;17.13;3.80;;;;;;;3.67;76.37;100352.44;10466750;28;20057;-77
2023/02/01 08:26:47;;;;;;;13.00;2.80;;;;;;;4.11;75.37;100358.97;10462226;28;20052;-77
2023/02/01 08:31:51;;;;;;;15.73;3.95;;;;;;;3.98;75.66;100357.91;10455781;28;20060;-77
2023/02/01 08:36:58;;;;;;;18.77;3.80;;;;;;;3.77;75.97;100357.28;10460598;28;20055;-78
2023/02/01 08:47:22;;;;;;;20.95;3.63;;;;;;;3.73;75.56;100357.44;10459386;28;20048;-79
2023/02/01 08:52:25;;;;;;;11.30;3.38;;;;;;;4.01;74.88;100348.00;10460319;28;20040;-79
2023/02/01 08:57:28;;;;;;;20.90;4.40;;;;;;;4.40;73.91;100355.56;10460125;28;20100;-78
2023/02/01 09:02:32;;;;;;;16.08;3.22;;;;;;;4.05;75.05;100361.97;10454488;28;20115;-78
2023/02/01 09:07:36;;;;;;;22.05;3.90;;;;;;;4.28;74.76;100368.66;10456401;28;20048;-78
2023/02/01 09:12:39;;;;;;;16.15;3.80;;;;;;;4.00;74.24;100375.50;10451882;28;20045;-78
2023/02/01 09:17:43;;;;;;;14.07;3.72;;;;;;;4.13;73.36;100351.78;10451424;28;20048;-78
2023/02/01 09:22:46;;;;;;;16.52;3.58;;;;;;;4.41;72.82;100364.41;10462171;28;20518;-78
2023/02/01 09:27:49;;;;;;;16.55;3.90;;;;;;;4.62;72.83;100343.72;10455501;28;20123;-78
2023/02/01 09:32:53;;;;;;;13.88;3.47;;;;;;;4.17;73.00;100350.69;10447024;28;20055;-78
2023/02/01 09:37:56;;;;;;;18.42;3.25;;;;;;;4.62;71.39;100333.06;10440127;28;21092;-78
2023/02/01 09:43:14;;;;;;;16.58;4.20;;;;;;;4.51;71.34;100346.97;10452278;28;20104;-78
2023/02/01 09:48:21;;;;;;;13.98;3.25;;;;;;;4.49;70.85;100346.22;10455674;28;20577;-78
2023/02/01 09:53:30;;;;;;;16.02;3.63;;;;;;;4.35;70.88;100348.78;10445396;28;20470;-78
2023/02/01 09:58:37;;;;;;;17.33;3.40;;;;;;;4.78;70.53;100359.69;10433500;28;20063;-78
2023/02/01 10:03:42;;;;;;;9.68;2.33;;;;;;;4.90;69.84;100342.13;10423846;28;20092;-78
2023/02/01 10:09:30;;;;;;;13.38;2.45;;;;;;;4.58;70.20;100351.03;10430270;28;20052;-79
2023/02/01 10:14:54;;;;;;;14.40;2.35;;;;;;;5.05;69.40;100335.97;10458568;28;20060;-78
2023/02/01 10:20:08;;;;;;;11.90;3.65;;;;;;;5.21;69.48;100350.09;10434334;28;20052;-78
2023/02/01 10:25:19;;;;;;;10.32;2.40;;;;;;;4.83;69.85;100331.84;10449366;28;20136;-79
2023/02/01 10:30:24;;;;;;;8.52;2.97;;;;;;;4.74;69.84;100339.50;10435755;28;20052;-78
2023/02/01 10:35:36;;;;;;;12.88;2.28;;;;;;;4.82;69.91;100323.94;10459437;28;20052;-78
2023/02/01 10:40:39;;;;;;;18.40;3.53;;;;;;;4.67;69.99;100308.88;10455517;28;20041;-78
2023/02/01 10:45:43;;;;;;;14.85;2.95;;;;;;;4.74;69.66;100339.50;10449404;28;20048;-78
2023/02/01 10:50:52;;;;;;;20.02;3.05;;;;;;;5.10;68.86;100312.59;10457751;28;20525;-78
2023/02/01 10:55:55;;;;;;;20.15;2.83;;;;;;;5.02;69.44;100329.00;10458820;28;20525;-77
2023/02/01 11:01:02;;;;;;;13.15;2.60;;;;;;;5.06;68.92;100313.69;10456218;28;20059;-78
2023/02/01 11:06:18;;;;;;;10.57;2.80;;;;;;;4.89;69.52;100308.50;10448980;28;20462;-78
2023/02/01 11:11:22;;;;;;;17.10;3.60;;;;;;;4.82;69.59;100323.94;10464368;28;20049;-78
2023/02/01 11:16:33;;;;;;;14.57;2.42;;;;;;;5.09;68.56;100284.22;10467308;28;20090;-78
2023/02/01 11:21:38;;;;;;;18.27;2.97;;;;;;;5.03;69.67;100280.13;10459053;28;20126;-77
2023/02/01 11:26:42;;;;;;;7.13;1.88;;;;;;;4.70;69.72;100266.97;10452054;28;20663;-77
2023/02/01 11:31:46;;;;;;;15.40;2.80;;;;;;;4.98;69.32;100295.47;10463331;28;20053;-78
2023/02/01 11:36:52;;;;;;;15.77;3.38;;;;;;;4.56;70.11;100266.94;10460411;28;21250;-78
2023/02/01 11:41:59;;;;;;;9.75;2.13;;;;;;;5.05;69.01;100235.63;10464825;28;20442;-78
2023/02/01 11:47:24;;;;;;;23.80;3.33;;;;;;;4.78;70.96;100221.28;10457117;28;20169;-79
2023/02/01 11:52:49;;;;;;;10.32;2.72;;;;;;;4.10;75.68;100229.66;10465349;28;21405;-78
2023/02/01 11:58:04;;;;;;;17.52;2.67;;;;;;;4.24;77.89;100186.31;10448641;28;20053;-78
2023/02/01 12:03:49;;;;;;;11.85;2.88;;;;;;;3.49;81.99;100220.63;10457618;28;20102;-78
2023/02/01 12:09:10;;;;;;;12.13;2.40;;;;;;;3.52;83.46;100190.41;10481255;28;20049;-78
2023/02/01 12:14:25;;;;;;;13.10;2.65;;;;;;;3.21;86.64;100205.31;10468769;28;21127;-78
2023/02/01 12:19:44;;;;;;;14.57;3.85;;;;;;;2.80;89.74;100187.97;10462761;28;20052;-78
2023/02/01 12:25:21;;;;;;;10.15;3.08;;;;;;;2.84;89.49;100202.78;10450089;28;20127;-80
2023/02/01 12:30:50;;;;;;;8.90;3.35;;;;;;;2.99;87.83;100187.00;10457339;28;20139;-79
2023/02/01 12:36:07;;;;;;;12.32;3.15;;;;;;;3.03;89.01;100152.28;10422996;28;20045;-80
2023/02/01 12:41:28;;;;;;;5.82;2.58;;;;;;;3.13;88.09;100157.97;10421975;28;20049;-79
2023/02/01 12:46:36;;;;;;;17.85;5.28;;;;;;;2.78;90.07;100173.94;10429993;28;20066;-80
2023/02/01 12:51:44;;;;;;;9.05;3.13;;;;;;;2.74;92.40;100175.03;10428763;28;20051;-80
2023/02/01 12:56:55;;;;;;;8.60;3.55;;;;;;;2.89;93.40;100157.47;10442799;28;20061;-83
2023/02/01 13:02:02;;;;;;;19.27;5.57;;;;;;;3.01;94.10;100138.22;10458727;28;20097;-84
2023/02/01 13:07:14;;;;;;;13.32;4.95;;;;;;;2.77;95.96;100137.75;10440884;28;20109;-82
2023/02/01 13:12:25;;;;;;;8.15;3.33;;;;;;;2.83;94.35;100131.25;10446155;28;20048;-83
2023/02/01 13:17:32;;;;;;;18.55;5.78;;;;;;;2.52;96.17;100055.06;10423251;28;20049;-82
2023/02/01 13:22:40;;;;;;;13.18;4.93;;;;;;;2.84;94.66;100117.03;10436664;28;20055;-83
2023/02/01 13:27:46;;;;;;;18.55;5.40;;;;;;;2.87;94.45;100122.19;10432320;28;20051;-82
2023/02/01 13:33:07;;;;;;;12.70;4.03;;;;;;;2.86;93.56;100109.88;10443258;28;20147;-81
2023/02/01 13:38:55;;;;;;;11.32;4.13;;;;;;;2.67;95.52;100079.97;10451754;28;20154;-81
2023/02/01 13:44:03;;;;;;;19.10;6.25;;;;;;;3.19;94.82;100095.72;10448452;28;20123;-82
2023/02/01 13:49:06;;;;;;;15.00;4.10;;;;;;;2.84;96.09;100120.53;10440216;28;20476;-82
2023/02/01 13:54:29;;;;;;;15.27;4.20;;;;;;;3.59;92.96;100101.44;10434133;28;20076;-80
2023/02/01 14:00:09;;;;;;;12.98;3.70;;;;;;;2.97;94.93;100114.59;10432147;28;20071;-81
2023/02/01 14:05:34;;;;;;;13.02;3.35;;;;;;;3.42;94.26;100120.97;10426280;28;20059;-81
2023/02/01 14:10:56;;;;;;;25.52;4.93;;;;;;;3.19;95.39;100123.09;10430367;28;20047;-82
2023/02/01 14:16:18;;;;;;;10.05;3.80;;;;;;;3.05;94.21;100137.13;10429760;28;20573;-81
2023/02/01 14:21:26;;;;;;;14.37;2.93;;;;;;;3.27;93.97;100173.13;10444677;28;20048;-81
2023/02/01 14:26:43;;;;;;;13.73;4.28;;;;;;;3.13;94.47;100171.22;10433599;28;20041;-81
2023/02/01 14:31:56;;;;;;;5.05;2.20;;;;;;;2.89;92.97;100180.47;10446604;28;20045;-82
2023/02/01 14:37:02;;;;;;;7.95;2.22;;;;;;;3.04;92.18;100177.88;10439665;28;20051;-81
2023/02/01 14:42:21;;;;;;;3.42;1.25;;;;;;;2.96;89.39;100196.00;10420006;28;20373;-81
2023/02/01 14:47:34;;;;;;;3.38;1.05;;;;;;;3.12;87.07;100188.06;10436814;28;20167;-80
2023/02/01 14:52:42;;;;;;;4.72;0.98;;;;;;;3.24;85.02;100184.78;10448021;28;20056;-79
2023/02/01 14:57:49;;;;;;;5.88;1.27;;;;;;;2.92;85.69;100201.53;10447679;28;20051;-82
2023/02/01 15:02:55;;;;;;;4.80;1.25;;;;;;;3.01;84.93;100211.66;10456768;28;20423;-80
2023/02/01 15:08:04;;;;;;;7.68;1.50;;;;;;;3.41;84.17;100214.88;10456266;28;20057;-81
2023/02/01 15:13:13;;;;;;;7.00;1.58;;;;;;;3.36;83.08;100199.19;10448611;28;20056;-81
2023/02/01 15:18:18;;;;;;;10.57;1.90;;;;;;;3.86;82.98;100235.38;10446533;28;20128;-81
2023/02/01 15:23:21;;;;;;;8.75;2.15;;;;;;;3.48;83.09;100242.78;10445919;28;20480;-80
2023/02/01 15:28:24;;;;;;;5.97;1.60;;;;;;;3.58;82.77;100237.84;10418776;28;20044;-81
2023/02/01 15:33:30;;;;;;;9.18;2.17;;;;;;;3.75;82.10;100228.97;10433052;28;20055;-80
2023/02/01 15:38:40;;;;;;;12.43;2.70;;;;;;;3.88;82.50;100230.00;10433241;28;20098;-79
2023/02/01 15:43:45;;;;;;;10.25;1.77;;;;;;;4.14;81.83;100244.47;10418461;28;21507;-79
2023/02/01 15:48:52;;;;;;;12.63;2.45;;;;;;;3.84;81.32;100221.34;10419838;28;20053;-79
2023/02/01 15:53:58;;;;;;;12.43;1.60;;;;;;;3.62;81.54;100229.66;10432480;28;20104;-79
2023/02/01 15:59:04;;;;;;;11.95;3.05;;;;;;;3.75;82.37;100239.59;10439306;28;20044;-78
2023/02/01 16:04:17;;;;;;;12.82;2.67;;;;;;;3.52;82.80;100243.50;10458796;28;20305;-80
2023/02/01 16:09:23;;;;;;;10.98;2.88;;;;;;;3.73;82.19;100251.16;10462069;28;20226;-80
2023/02/01 16:14:27;;;;;;;10.40;2.17;;;;;;;3.80;81.87;100245.50;10456180;28;20071;-79
2023/02/01 16:19:31;;;;;;;10.93;2.45;;;;;;;3.63;82.95;100241.13;10460156;28;20578;-79
2023/02/01 16:24:34;;;;;;;16.95;3.30;;;;;;;3.49;83.03;100256.00;10465446;28;20052;-80
2023/02/01 16:29:37;;;;;;;16.65;5.13;;;;;;;3.66;82.89;100249.78;10444319;28;20123;-80
2023/02/01 16:34:42;;;;;;;8.75;2.63;;;;;;;3.43;81.22;100311.25;10447219;28;20111;-79
2023/02/01 16:39:45;;;;;;;9.98;2.53;;;;;;;3.45;80.14;100288.97;10451460;28;20075;-79
2023/02/01 16:44:48;;;;;;;9.38;2.17;;;;;;;3.45;82.06;100306.69;10459694;28;20052;-79
2023/02/01 16:49:52;;;;;;;12.18;1.95;;;;;;;3.46;81.94;100313.75;10458028;28;20060;-78
2023/02/01 16:54:55;;;;;;;12.93;2.78;;;;;;;3.82;83.07;100320.69;10444740;28;20048;-79
2023/02/01 17:00:01;;;;;;;14.77;3.83;;;;;;;3.87;82.79;100332.78;10452169;28;20622;-80
2023/02/01 17:05:17;;;;;;;17.98;4.13;;;;;;;3.94;81.43;100318.22;10448649;28;20048;-79
2023/02/01 17:10:24;;;;;;;15.25;3.38;;;;;;;3.82;80.94;100312.72;10423201;28;20040;-79
2023/02/01 17:15:36;;;;;;;14.10;3.58;;;;;;;3.55;81.87;100320.38;10444556;28;20779;-78
2023/02/01 17:20:40;;;;;;;11.10;2.42;;;;;;;3.65;80.57;100329.56;10441600;28;20045;-77
2023/02/01 17:25:43;;;;;;;12.10;3.15;;;;;;;3.66;81.19;100325.97;10443802;28;20051;-79
2023/02/01 17:30:47;;;;;;;12.27;2.72;;;;;;;3.57;80.84;100323.81;10441568;28;20484;-78
2023/02/01 17:35:51;;;;;;;19.58;4.05;;;;;;;3.59;81.30;100336.03;10426164;28;20075;-78
2023/02/01 17:40:54;;;;;;;11.98;2.83;;;;;;;3.50;80.96;100334.72;10429927;28;20194;-78
2023/02/01 17:46:01;;;;;;;19.20;3.22;;;;;;;3.90;79.21;100347.72;10451620;28;20637;-77
2023/02/01 17:51:09;;;;;;;20.90;4.28;;;;;;;3.62;78.66;100333.25;10472597;28;20054;-77
2023/02/01 17:56:15;;;;;;;17.38;3.88;;;;;;;3.88;77.68;100344.28;10468127;28;20102;-76
2023/02/01 18:01:20;;;;;;;13.27;2.92;;;;;;;3.54;77.16;100342.53;10460131;28;20093;-77
2023/02/01 18:06:26;;;;;;;18.45;3.25;;;;;;;3.55;77.67;100341.63;10455958;28;20086;-78
2023/02/01 18:11:31;;;;;;;12.93;2.72;;;;;;;3.87;76.80;100356.72;10456277;28;20096;-78
2023/02/01 18:16:35;;;;;;;9.82;3.25;;;;;;;3.49;78.16;100343.66;10448166;28;20049;-78
2023/02/01 18:21:43;;;;;;;18.95;2.90;;;;;;;3.75;77.82;100352.03;10451158;28;20052;-79
2023/02/01 18:26:45;;;;;;;20.20;4.72;;;;;;;3.87;77.30;100351.41;10456008;28;20056;-78
2023/02/01 18:31:49;;;;;;;16.10;3.30;;;;;;;3.81;76.97;100350.84;10458272;28;20052;-78
2023/02/01 18:36:53;;;;;;;18.60;3.35;;;;;;;3.82;76.31;100352.59;10456324;28;20123;-78
2023/02/01 18:41:56;;;;;;;14.27;3.90;;;;;;;3.89;76.20;100368.09;10453719;28;20044;-77
2023/02/01 18:46:59;;;;;;;14.77;2.83;;;;;;;3.68;76.22;100359.47;10457375;28;20044;-78
2023/02/01 18:52:04;;;;;;;10.45;2.97;;;;;;;3.80;75.99;100365.94;10456081;28;20127;-78
2023/02/01 18:57:08;;;;;;;18.50;2.88;;;;;;;3.83;76.13;100371.09;10449260;28;20186;-79
2023/02/01 19:02:13;;;;;;;17.52;4.28;;;;;;;3.59;77.24;100380.34;10448530;28;20141;-78
2023/02/01 19:07:18;;;;;;;17.63;3.05;;;;;;;3.61;76.08;100391.75;10451243;28;20082;-78
2023/02/01 19:12:20;;;;;;;14.82;2.88;;;;;;;3.59;75.98;100390.97;10448340;28;20053;-79
2023/02/01 19:17:23;;;;;;;14.85;3.03;;;;;;;3.75;75.62;100406.97;10448590;28;20052;-77
2023/02/01 19:22:27;;;;;;;14.23;2.47;;;;;;;3.82;75.79;100411.03;10437808;28;20052;-78
2023/02/01 19:27:30;;;;;;;13.55;2.50;;;;;;;4.00;75.13;100403.88;10444453;28;20049;-79
2023/02/01 19:32:33;;;;;;;12.43;2.22;;;;;;;4.02;74.59;100394.88;10467328;28;20596;-78
2023/02/01 19:37:40;;;;;;;16.73;3.05;;;;;;;4.20;74.45;100405.47;10457245;28;20106;-79
2023/02/01 19:42:43;;;;;;;17.17;2.70;;;;;;;3.79;75.02;100405.91;10461531;28;20052;-78
2023/02/01 19:47:46;;;;;;;9.00;2.40;;;;;;;3.82;74.37;100398.59;10448924;28;20047;-78
2023/02/01 19:52:50;;;;;;;16.77;2.72;;;;;;;3.91;73.54;100407.88;10425719;28;20048;-78
2023/02/01 19:57:53;;;;;;;9.52;2.40;;;;;;;3.94;73.12;100405.06;10458591;28;20055;-77
2023/02/01 20:02:56;;;;;;;14.15;2.90;;;;;;;4.06;72.44;100411.53;10429817;28;20045;-77
2023/02/01 20:08:00;;;;;;;16.67;2.58;;;;;;;4.36;71.43;100399.25;10437665;28;20063;-78
2023/02/01 20:13:03;;;;;;;16.75;2.70;;;;;;;3.97;72.03;100412.88;10426406;28;20056;-78
2023/02/01 20:18:06;;;;;;;15.73;2.55;;;;;;;4.19;71.93;100417.91;10445965;28;20053;-78
2023/02/01 20:23:10;;;;;;;15.70;2.85;;;;;;;4.17;71.88;100433.09;10437573;28;20156;-78
2023/02/01 20:28:13;;;;;;;10.02;2.45;;;;;;;4.53;70.77;100418.75;10441748;28;20049;-78
2023/02/01 20:33:17;;;;;;;11.20;2.83;;;;;;;4.26;71.04;100437.06;10446723;28;20052;-78
2023/02/01 20:38:21;;;;;;;21.00;2.55;;;;;;;4.45;70.58;100428.94;10457870;28;20190;-78
2023/02/01 20:43:24;;;;;;;17.10;2.75;;;;;;;4.40;71.64;100434.50;10436072;28;20828;-79
2023/02/01 20:48:29;;;;;;;30.88;3.08;;;;;;;4.03;72.71;100439.16;10455410;28;20087;-78
2023/02/01 20:53:33;;;;;;;16.13;2.65;;;;;;;4.17;72.08;100449.06;10464590;28;20074;-77
2023/02/01 20:58:36;;;;;;;15.57;2.97;;;;;;;4.17;72.83;100444.59;10457427;28;20047;-78
2023/02/01 21:03:39;;;;;;;18.05;2.38;;;;;;;4.43;72.32;100441.47;10446861;28;20051;-78
2023/02/01 21:08:43;;;;;;;19.13;2.60;;;;;;;4.15;72.15;100441.16;10452884;28;20052;-78
2023/02/01 21:13:50;;;;;;;14.00;2.10;;;;;;;4.58;70.79;100448.59;10445679;28;20454;-77
2023/02/01 21:18:53;;;;;;;14.63;2.95;;;;;;;4.25;72.36;100456.59;10450691;28;20241;-77
2023/02/01 21:23:58;;;;;;;14.02;3.33;;;;;;;3.98;72.39;100448.28;10443281;28;20139;-78
2023/02/01 21:29:00;;;;;;;20.35;2.65;;;;;;;4.35;71.90;100458.69;10461699;28;20052;-78
2023/02/01 21:34:05;;;;;;;13.13;2.22;;;;;;;3.94;73.12;100464.38;10465125;28;20060;-78
2023/02/01 21:39:10;;;;;;;17.63;4.88;;;;;;;3.87;73.33;100456.84;10461526;28;20040;-77
2023/02/01 21:44:13;;;;;;;11.95;3.25;;;;;;;4.46;71.71;100466.09;10452197;28;20068;-78
2023/02/01 21:49:17;;;;;;;12.77;3.20;;;;;;;4.11;73.43;100468.84;10457111;28;21596;-78
2023/02/01 21:54:21;;;;;;;10.93;2.05;;;;;;;3.95;73.38;100466.13;10461701;28;20037;-77
2023/02/01 21:59:24;;;;;;;10.65;2.03;;;;;;;4.09;71.78;100461.91;10458432;28;20710;-79
2023/02/01 22:04:27;;;;;;;9.82;1.73;;;;;;;4.16;71.98;100472.09;10457492;28;20136;-79
2023/02/01 22:09:31;;;;;;;15.30;2.78;;;;;;;4.28;71.70;100475.03;10453129;28;20503;-77
2023/02/01 22:14:34;;;;;;;11.65;1.80;;;;;;;4.04;71.64;100480.72;10461229;28;20052;-78
2023/02/01 22:19:37;;;;;;;19.38;1.83;;;;;;;4.17;70.39;100478.31;10460268;28;20049;-78
2023/02/01 22:24:41;;;;;;;13.85;2.33;;;;;;;4.25;71.58;100496.47;10452523;28;20132;-79
2023/02/01 22:29:45;;;;;;;19.17;2.70;;;;;;;4.24;71.48;100500.94;10460404;28;20436;-77
2023/02/01 22:34:47;;;;;;;13.00;2.13;;;;;;;4.33;71.00;100507.56;10478541;28;20059;-78
2023/02/01 22:39:53;;;;;;;13.88;1.80;;;;;;;4.11;71.29;100503.41;10495692;28;20620;-78
2023/02/01 22:44:55;;;;;;;14.90;2.67;;;;;;;4.08;71.44;100523.97;10491523;28;20068;-77
2023/02/01 22:49:58;;;;;;;10.88;2.58;;;;;;;3.76;71.45;100537.09;10492572;28;20108;-78
2023/02/01 22:55:03;;;;;;;13.88;2.70;;;;;;;3.99;72.46;100538.59;10499582;28;20241;-77
2023/02/01 23:00:08;;;;;;;15.07;2.45;;;;;;;4.22;71.54;100533.88;10496936;28;20468;-78
2023/02/01 23:05:11;;;;;;;13.13;2.65;;;;;;;4.06;72.82;100545.31;10486431;28;20458;-78
2023/02/01 23:10:16;;;;;;;15.43;2.83;;;;;;;4.16;72.30;100559.00;10474265;28;20041;-78
2023/02/01 23:15:19;;;;;;;15.88;2.20;;;;;;;3.80;73.65;100545.78;10468638;28;20045;-77
2023/02/01 23:20:22;;;;;;;20.75;3.00;;;;;;;3.56;74.01;100545.19;10476273;28;20415;-78
2023/02/01 23:25:27;;;;;;;19.48;2.92;;;;;;;3.58;74.07;100559.28;10471525;28;20045;-76
2023/02/01 23:30:29;;;;;;;18.27;2.92;;;;;;;3.33;74.99;100562.25;10483338;28;20045;-78
2023/02/01 23:35:32;;;;;;;20.60;2.72;;;;;;;3.76;73.99;100565.47;10499618;28;20045;-77
2023/02/01 23:40:36;;;;;;;17.45;2.15;;;;;;;3.42;75.21;100572.44;10492770;28;20572;-76
2023/02/01 23:45:39;;;;;;;17.92;2.95;;;;;;;3.58;74.80;100564.59;10471239;28;20664;-77
2023/02/01 23:50:42;;;;;;;17.27;3.15;;;;;;;2.88;77.64;100580.28;10489139;28;20051;-77
2023/02/01 23:55:46;;;;;;;17.95;2.45;;;;;;;3.02;76.90;100584.97;10468569;28;20033;-78
